createdAt,value
2019-05-26T00:00:48.024Z,987.68
2019-05-26T00:01:47.982Z,987.69
2019-05-26T00:03:47.991Z,987.68
2019-05-26T00:04:47.949Z,987.70
2019-05-26T00:05:47.929Z,987.67
2019-05-26T00:06:47.927Z,987.71
2019-05-26T00:07:47.919Z,987.75
2019-05-26T00:08:47.920Z,987.67
2019-05-26T00:09:47.899Z,987.68
2019-05-26T00:10:47.879Z,987.71
2019-05-26T00:11:47.890Z,987.74
2019-05-26T00:12:47.889Z,987.79
2019-05-26T00:13:47.855Z,987.75
2019-05-26T00:14:47.938Z,987.75
2019-05-26T00:15:47.835Z,987.77
2019-05-26T00:16:47.817Z,987.75
2019-05-26T00:17:47.818Z,987.80
2019-05-26T00:18:47.805Z,987.77
2019-05-26T00:19:47.795Z,987.87
2019-05-26T00:20:47.788Z,987.76
2019-05-26T00:21:47.776Z,987.85
2019-05-26T00:22:47.757Z,987.81
2019-05-26T00:23:47.776Z,987.87
2019-05-26T00:24:47.750Z,987.80
2019-05-26T00:25:47.747Z,987.81
2019-05-26T00:26:47.724Z,987.85
2019-05-26T00:27:47.721Z,987.83
2019-05-26T00:28:47.704Z,987.75
2019-05-26T00:30:47.683Z,987.83
2019-05-26T00:31:47.675Z,987.76
2019-05-26T00:32:47.663Z,987.78
2019-05-26T00:34:47.620Z,987.74
2019-05-26T00:35:47.621Z,987.81
2019-05-26T00:36:47.610Z,987.71
2019-05-26T00:37:49.890Z,987.77
2019-05-26T00:38:47.590Z,987.87
2019-05-26T00:39:47.568Z,987.78
2019-05-26T00:40:47.562Z,987.79
2019-05-26T00:41:47.557Z,987.75
2019-05-26T00:42:47.571Z,987.84
2019-05-26T00:43:47.529Z,987.75
2019-05-26T00:44:47.530Z,987.81
2019-05-26T00:45:47.507Z,987.80
2019-05-26T00:46:47.495Z,987.82
2019-05-26T00:47:47.512Z,987.85
2019-05-26T00:48:47.509Z,987.77
2019-05-26T00:49:47.489Z,987.82
2019-05-26T00:50:47.468Z,987.84
2019-05-26T00:51:47.448Z,987.82
2019-05-26T00:52:47.453Z,987.84
2019-05-26T00:53:47.478Z,987.81
2019-05-26T00:54:47.439Z,987.82
2019-05-26T00:55:47.408Z,987.94
2019-05-26T00:56:47.408Z,987.82
2019-05-26T00:57:47.393Z,987.89
2019-05-26T00:58:47.380Z,987.78
2019-05-26T00:59:47.375Z,987.83
2019-05-26T01:00:47.375Z,987.87
2019-05-26T01:01:47.366Z,987.92
2019-05-26T01:02:47.347Z,987.91
2019-05-26T01:03:47.355Z,987.95
2019-05-26T01:05:47.290Z,988.09
2019-05-26T01:06:47.283Z,988.03
2019-05-26T01:07:47.281Z,988.00
2019-05-26T01:08:47.269Z,988.00
2019-05-26T01:09:47.296Z,988.07
2019-05-26T01:10:47.253Z,988.02
2019-05-26T01:11:47.243Z,988.01
2019-05-26T01:12:47.236Z,988.05
2019-05-26T01:13:47.248Z,987.99
2019-05-26T01:14:47.206Z,988.08
2019-05-26T01:15:47.211Z,988.04
2019-05-26T01:16:47.180Z,988.10
2019-05-26T01:17:47.171Z,988.10
2019-05-26T01:18:47.161Z,988.08
2019-05-26T01:19:47.178Z,988.07
2019-05-26T01:20:47.196Z,988.13
2019-05-26T01:21:47.129Z,988.09
2019-05-26T01:22:47.150Z,988.07
2019-05-26T01:23:47.108Z,988.11
2019-05-26T01:24:47.131Z,988.14
2019-05-26T01:25:47.092Z,988.11
2019-05-26T01:26:47.103Z,988.11
2019-05-26T01:27:47.068Z,988.13
2019-05-26T01:28:47.049Z,988.16
2019-05-26T01:29:47.076Z,988.11
2019-05-26T01:30:47.179Z,988.14
2019-05-26T01:31:47.019Z,988.10
2019-05-26T01:32:47.018Z,988.11
2019-05-26T01:33:47.008Z,988.12
2019-05-26T01:34:46.999Z,988.13
2019-05-26T01:36:47.016Z,988.15
2019-05-26T01:37:46.965Z,988.16
2019-05-26T01:38:46.949Z,988.16
2019-05-26T01:39:46.948Z,988.10
2019-05-26T01:40:46.927Z,988.11
2019-05-26T01:41:46.942Z,988.09
2019-05-26T01:42:46.913Z,988.07
2019-05-26T01:43:46.915Z,988.11
2019-05-26T01:44:46.919Z,988.08
2019-05-26T01:45:46.888Z,988.13
2019-05-26T01:46:46.871Z,988.13
2019-05-26T01:47:46.893Z,988.03
2019-05-26T01:48:46.846Z,988.11
2019-05-26T01:49:46.832Z,988.17
2019-05-26T01:50:46.835Z,988.17
2019-05-26T01:51:46.822Z,988.13
2019-05-26T01:52:46.848Z,988.16
2019-05-26T01:53:46.836Z,988.21
2019-05-26T01:54:46.796Z,988.23
2019-05-26T01:55:46.794Z,988.19
2019-05-26T01:56:46.793Z,988.25
2019-05-26T01:57:46.750Z,988.20
2019-05-26T01:58:46.743Z,988.23
2019-05-26T01:59:46.765Z,988.24
2019-05-26T02:00:46.950Z,988.28
2019-05-26T02:01:46.729Z,988.20
2019-05-26T02:02:46.707Z,988.30
2019-05-26T02:03:46.679Z,988.27
2019-05-26T02:04:46.722Z,988.29
2019-05-26T02:05:46.668Z,988.26
2019-05-26T02:07:46.647Z,988.29
2019-05-26T02:08:46.650Z,988.30
2019-05-26T02:09:46.640Z,988.24
2019-05-26T02:10:46.621Z,988.28
2019-05-26T02:11:46.639Z,988.34
2019-05-26T02:12:46.606Z,988.34
2019-05-26T02:13:46.593Z,988.37
2019-05-26T02:14:46.611Z,988.27
2019-05-26T02:15:46.631Z,988.37
2019-05-26T02:16:46.550Z,988.37
2019-05-26T02:17:46.558Z,988.36
2019-05-26T02:18:46.549Z,988.38
2019-05-26T02:19:46.515Z,988.27
2019-05-26T02:20:46.518Z,988.36
2019-05-26T02:21:46.526Z,988.36
2019-05-26T02:22:46.484Z,988.44
2019-05-26T02:23:46.496Z,988.29
2019-05-26T02:24:46.496Z,988.34
2019-05-26T02:25:46.471Z,988.37
2019-05-26T02:26:46.499Z,988.31
2019-05-26T02:27:46.457Z,988.42
2019-05-26T02:28:46.442Z,988.35
2019-05-26T02:29:46.416Z,988.39
2019-05-26T02:30:46.426Z,988.40
2019-05-26T02:31:46.406Z,988.40
2019-05-26T02:32:46.406Z,988.38
2019-05-26T02:33:46.405Z,988.43
2019-05-26T02:34:46.367Z,988.41
2019-05-26T02:35:46.366Z,988.41
2019-05-26T02:36:46.347Z,988.42
2019-05-26T02:39:00.959Z,988.48
2019-05-26T02:39:47.300Z,988.55
2019-05-26T02:40:46.306Z,988.50
2019-05-26T02:41:46.304Z,988.47
2019-05-26T02:42:46.279Z,988.50
2019-05-26T02:43:46.311Z,988.50
2019-05-26T02:44:46.254Z,988.51
2019-05-26T02:45:46.251Z,988.52
2019-05-26T02:46:46.241Z,988.53
2019-05-26T02:47:46.250Z,988.50
2019-05-26T02:48:46.234Z,988.55
2019-05-26T02:49:46.958Z,988.52
2019-05-26T02:50:46.199Z,988.57
2019-05-26T02:51:46.194Z,988.51
2019-05-26T02:52:46.159Z,988.57
2019-05-26T02:53:46.177Z,988.51
2019-05-26T02:54:46.154Z,988.55
2019-05-26T02:55:46.147Z,988.61
2019-05-26T02:56:46.169Z,988.51
2019-05-26T02:57:46.156Z,988.56
2019-05-26T02:58:46.126Z,988.57
2019-05-26T02:59:46.136Z,988.54
2019-05-26T03:00:46.126Z,988.63
2019-05-26T03:02:02.293Z,988.63
2019-05-26T03:02:47.055Z,988.65
2019-05-26T03:03:46.045Z,988.57
2019-05-26T03:04:46.056Z,988.57
2019-05-26T03:05:46.073Z,988.57
2019-05-26T03:06:46.041Z,988.56
2019-05-26T03:07:46.014Z,988.60
2019-05-26T03:09:45.991Z,988.60
2019-05-26T03:10:46.043Z,988.66
2019-05-26T03:11:46.008Z,988.59
2019-05-26T03:12:45.961Z,988.68
2019-05-26T03:13:45.951Z,988.66
2019-05-26T03:14:45.951Z,988.69
2019-05-26T03:15:45.942Z,988.66
2019-05-26T03:16:45.927Z,988.65
2019-05-26T03:17:45.930Z,988.68
2019-05-26T03:18:45.909Z,988.71
2019-05-26T03:19:45.886Z,988.69
2019-05-26T03:20:45.895Z,988.72
2019-05-26T03:21:45.915Z,988.64
2019-05-26T03:22:45.853Z,988.74
2019-05-26T03:23:45.852Z,988.68
2019-05-26T03:24:45.857Z,988.67
2019-05-26T03:25:45.835Z,988.70
2019-05-26T03:26:45.816Z,988.70
2019-05-26T03:27:45.951Z,988.64
2019-05-26T03:28:45.787Z,988.71
2019-05-26T03:29:45.791Z,988.66
2019-05-26T03:30:45.781Z,988.67
2019-05-26T03:31:45.993Z,988.66
2019-05-26T03:32:45.769Z,988.68
2019-05-26T03:33:45.738Z,988.74
2019-05-26T03:34:45.759Z,988.70
2019-05-26T03:35:45.796Z,988.68
2019-05-26T03:36:45.716Z,988.70
2019-05-26T03:37:45.757Z,988.68
2019-05-26T03:38:45.690Z,988.68
2019-05-26T03:39:56.053Z,988.66
2019-05-26T03:40:45.673Z,988.73
2019-05-26T03:41:45.644Z,988.71
2019-05-26T03:42:45.642Z,988.73
2019-05-26T03:43:45.651Z,988.72
2019-05-26T03:44:45.624Z,988.74
2019-05-26T03:45:45.609Z,988.73
2019-05-26T03:46:45.609Z,988.76
2019-05-26T03:47:45.604Z,988.70
2019-05-26T03:48:45.631Z,988.82
2019-05-26T03:49:45.592Z,988.85
2019-05-26T03:50:45.567Z,988.83
2019-05-26T03:51:45.547Z,988.82
2019-05-26T03:52:45.544Z,988.84
2019-05-26T03:53:45.521Z,988.77
2019-05-26T03:54:45.551Z,988.86
2019-05-26T03:55:45.519Z,988.79
2019-05-26T03:56:45.489Z,988.86
2019-05-26T03:57:45.496Z,988.92
2019-05-26T03:58:45.490Z,988.90
2019-05-26T03:59:45.459Z,988.86
2019-05-26T04:00:45.469Z,988.86
2019-05-26T04:01:45.448Z,988.82
2019-05-26T04:02:45.446Z,988.89
2019-05-26T04:03:45.467Z,988.85
2019-05-26T04:04:45.407Z,988.92
2019-05-26T04:05:45.407Z,988.85
2019-05-26T04:06:45.482Z,988.87
2019-05-26T04:07:45.409Z,988.90
2019-05-26T04:08:45.370Z,988.86
2019-05-26T04:10:03.016Z,988.87
2019-05-26T04:11:45.344Z,988.89
2019-05-26T04:12:45.326Z,988.97
2019-05-26T04:13:45.317Z,988.93
2019-05-26T04:14:45.314Z,988.90
2019-05-26T04:15:45.291Z,988.87
2019-05-26T04:16:45.294Z,988.88
2019-05-26T04:17:45.285Z,988.95
2019-05-26T04:18:45.298Z,989.00
2019-05-26T04:19:45.241Z,989.02
2019-05-26T04:20:46.046Z,988.97
2019-05-26T04:21:45.265Z,988.99
2019-05-26T04:22:45.226Z,988.95
2019-05-26T04:23:45.210Z,988.95
2019-05-26T04:24:45.192Z,988.95
2019-05-26T04:25:45.178Z,989.01
2019-05-26T04:26:45.170Z,989.01
2019-05-26T04:27:45.179Z,989.02
2019-05-26T04:28:45.160Z,989.09
2019-05-26T04:29:45.152Z,989.00
2019-05-26T04:30:45.139Z,989.02
2019-05-26T04:31:45.119Z,989.03
2019-05-26T04:32:45.119Z,989.03
2019-05-26T04:33:45.113Z,989.03
2019-05-26T04:34:45.089Z,989.00
2019-05-26T04:35:45.106Z,989.02
2019-05-26T04:36:45.071Z,989.08
2019-05-26T04:37:45.058Z,989.03
2019-05-26T04:38:45.075Z,989.04
2019-05-26T04:39:45.035Z,989.08
2019-05-26T04:40:45.035Z,989.05
2019-05-26T04:42:45.006Z,989.00
2019-05-26T04:43:45.007Z,989.05
2019-05-26T04:44:45.026Z,989.12
2019-05-26T04:45:44.965Z,989.10
2019-05-26T04:46:44.969Z,989.07
2019-05-26T04:47:44.969Z,989.12
2019-05-26T04:48:44.937Z,989.04
2019-05-26T04:49:44.946Z,989.04
2019-05-26T04:50:44.938Z,989.08
2019-05-26T04:51:44.914Z,989.07
2019-05-26T04:53:04.795Z,989.15
2019-05-26T04:53:45.904Z,989.11
2019-05-26T04:54:44.874Z,989.12
2019-05-26T04:55:44.952Z,989.10
2019-05-26T04:56:44.853Z,989.10
2019-05-26T04:57:44.881Z,989.14
2019-05-26T04:58:44.856Z,989.11
2019-05-26T04:59:44.896Z,989.19
2019-05-26T05:00:44.844Z,989.12
2019-05-26T05:01:44.831Z,989.12
2019-05-26T05:02:44.794Z,989.16
2019-05-26T05:03:44.814Z,989.10
2019-05-26T05:04:44.853Z,989.10
2019-05-26T05:05:44.801Z,989.08
2019-05-26T05:06:44.776Z,989.15
2019-05-26T05:07:44.740Z,989.14
2019-05-26T05:08:44.730Z,989.11
2019-05-26T05:09:44.730Z,989.18
2019-05-26T05:10:44.715Z,989.13
2019-05-26T05:11:44.746Z,989.22
2019-05-26T05:13:44.679Z,989.24
2019-05-26T05:14:44.677Z,989.13
2019-05-26T05:15:44.656Z,989.22
2019-05-26T05:16:44.660Z,989.21
2019-05-26T05:17:44.648Z,989.19
2019-05-26T05:18:44.628Z,989.27
2019-05-26T05:19:44.614Z,989.15
2019-05-26T05:20:44.628Z,989.20
2019-05-26T05:21:44.595Z,989.10
2019-05-26T05:22:44.618Z,989.17
2019-05-26T05:23:44.576Z,989.19
2019-05-26T05:24:44.583Z,989.16
2019-05-26T05:25:44.542Z,989.10
2019-05-26T05:26:44.538Z,989.16
2019-05-26T05:27:44.523Z,989.17
2019-05-26T05:28:44.552Z,989.18
2019-05-26T05:29:44.514Z,989.16
2019-05-26T05:30:44.508Z,989.16
2019-05-26T05:31:44.525Z,989.23
2019-05-26T05:32:44.508Z,989.24
2019-05-26T05:33:44.493Z,989.24
2019-05-26T05:34:44.486Z,989.31
2019-05-26T05:35:44.454Z,989.30
2019-05-26T05:36:44.431Z,989.37
2019-05-26T05:37:44.422Z,989.31
2019-05-26T05:38:44.426Z,989.34
2019-05-26T05:39:44.415Z,989.31
2019-05-26T05:40:58.444Z,989.30
2019-05-26T05:41:45.387Z,989.36
2019-05-26T05:42:44.374Z,989.35
2019-05-26T05:44:44.348Z,989.39
2019-05-26T05:45:44.345Z,989.41
2019-05-26T05:46:44.329Z,989.33
2019-05-26T05:47:44.317Z,989.41
2019-05-26T05:48:44.311Z,989.37
2019-05-26T05:49:44.323Z,989.38
2019-05-26T05:50:44.298Z,989.42
2019-05-26T05:51:44.296Z,989.37
2019-05-26T05:52:44.259Z,989.45
2019-05-26T05:53:44.261Z,989.36
2019-05-26T05:54:44.288Z,989.43
2019-05-26T05:55:44.246Z,989.46
2019-05-26T05:56:44.219Z,989.44
2019-05-26T05:57:44.245Z,989.45
2019-05-26T05:58:44.213Z,989.42
2019-05-26T05:59:44.215Z,989.40
2019-05-26T06:00:44.227Z,989.46
2019-05-26T06:01:44.191Z,989.47
2019-05-26T06:02:44.165Z,989.49
2019-05-26T06:03:44.161Z,989.44
2019-05-26T06:04:44.146Z,989.46
2019-05-26T06:05:44.167Z,989.46
2019-05-26T06:06:44.115Z,989.55
2019-05-26T06:07:44.108Z,989.46
2019-05-26T06:08:44.103Z,989.48
2019-05-26T06:09:44.086Z,989.51
2019-05-26T06:10:44.073Z,989.51
2019-05-26T06:11:44.123Z,989.49
2019-05-26T06:12:44.091Z,989.49
2019-05-26T06:13:44.045Z,989.51
2019-05-26T06:15:44.025Z,989.47
2019-05-26T06:16:44.014Z,989.50
2019-05-26T06:17:44.014Z,989.52
2019-05-26T06:18:43.989Z,989.57
2019-05-26T06:19:43.980Z,989.50
2019-05-26T06:20:43.985Z,989.57
2019-05-26T06:21:43.951Z,989.49
2019-05-26T06:22:43.959Z,989.52
2019-05-26T06:23:43.931Z,989.49
2019-05-26T06:24:43.920Z,989.50
2019-05-26T06:25:43.964Z,989.54
2019-05-26T06:26:43.907Z,989.47
2019-05-26T06:27:43.921Z,989.54
2019-05-26T06:28:43.891Z,989.50
2019-05-26T06:29:57.816Z,989.48
2019-05-26T06:30:44.858Z,989.46
2019-05-26T06:31:44.001Z,989.45
2019-05-26T06:32:43.860Z,989.46
2019-05-26T06:33:43.878Z,989.46
2019-05-26T06:34:43.830Z,989.41
2019-05-26T06:35:43.827Z,989.50
2019-05-26T06:36:43.807Z,989.49
2019-05-26T06:37:43.812Z,989.46
2019-05-26T06:38:43.785Z,989.43
2019-05-26T06:39:43.789Z,989.45
2019-05-26T06:40:43.759Z,989.37
2019-05-26T06:41:43.790Z,989.49
2019-05-26T06:42:43.739Z,989.43
2019-05-26T06:43:43.744Z,989.48
2019-05-26T06:44:53.167Z,989.41
2019-05-26T06:46:56.944Z,989.51
2019-05-26T06:47:56.915Z,989.50
2019-05-26T06:48:56.903Z,989.45
2019-05-26T06:49:56.872Z,989.42
2019-05-26T06:50:56.877Z,989.41
2019-05-26T06:52:56.873Z,989.39
2019-05-26T06:53:56.857Z,989.39
2019-05-26T06:54:56.829Z,989.31
2019-05-26T06:55:56.842Z,989.31
2019-05-26T06:56:56.822Z,989.35
2019-05-26T06:57:56.790Z,989.37
2019-05-26T06:58:56.780Z,989.31
2019-05-26T06:59:56.782Z,989.22
2019-05-26T07:00:56.772Z,989.34
2019-05-26T07:01:56.769Z,989.28
2019-05-26T07:02:56.772Z,989.24
2019-05-26T07:03:56.739Z,989.31
2019-05-26T07:04:56.750Z,989.32
2019-05-26T07:05:56.731Z,989.36
2019-05-26T07:06:56.744Z,989.32
2019-05-26T07:07:56.693Z,989.40
2019-05-26T07:08:56.693Z,989.35
2019-05-26T07:09:56.690Z,989.39
2019-05-26T07:10:56.662Z,989.38
2019-05-26T07:13:56.649Z,989.21
2019-05-26T07:14:56.621Z,989.29
2019-05-26T07:15:56.625Z,989.23
2019-05-26T07:17:03.607Z,989.21
2019-05-26T07:17:56.587Z,989.17
2019-05-26T07:18:56.586Z,989.23
2019-05-26T07:19:56.603Z,989.21
2019-05-26T07:20:56.555Z,989.15
2019-05-26T07:21:56.565Z,989.21
2019-05-26T07:22:56.535Z,989.14
2019-05-26T07:24:56.530Z,989.06
2019-05-26T07:25:56.507Z,989.11
2019-05-26T07:26:56.551Z,989.06
2019-05-26T07:27:56.655Z,989.14
2019-05-26T07:28:56.486Z,989.13
2019-05-26T07:29:56.477Z,989.15
2019-05-26T07:30:56.470Z,989.21
2019-05-26T07:31:56.452Z,989.13
2019-05-26T07:32:56.453Z,989.19
2019-05-26T07:33:56.529Z,989.18
2019-05-26T07:34:56.431Z,989.16
2019-05-26T07:35:56.433Z,989.20
2019-05-26T07:36:56.407Z,989.20
2019-05-26T07:37:56.405Z,989.16
2019-05-26T07:38:56.364Z,989.10
2019-05-26T07:39:56.373Z,989.13
2019-05-26T07:40:56.333Z,989.16
2019-05-26T07:42:09.259Z,989.08
2019-05-26T07:43:56.321Z,989.15
2019-05-26T07:44:56.291Z,989.14
2019-05-26T07:45:56.293Z,989.03
2019-05-26T07:46:56.294Z,989.16
2019-05-26T07:48:08.421Z,989.09
2019-05-26T07:48:56.251Z,989.19
2019-05-26T07:49:56.252Z,989.15
2019-05-26T07:50:56.240Z,989.17
2019-05-26T07:51:56.227Z,989.12
2019-05-26T07:52:56.215Z,989.13
2019-05-26T07:53:56.412Z,989.21
2019-05-26T07:54:56.205Z,989.22
2019-05-26T07:56:56.239Z,989.17
2019-05-26T07:57:56.171Z,989.29
2019-05-26T07:58:56.167Z,989.17
2019-05-26T07:59:56.138Z,989.20
2019-05-26T08:00:56.372Z,989.26
2019-05-26T08:01:56.123Z,989.23
2019-05-26T08:02:56.107Z,989.23
2019-05-26T08:03:56.115Z,989.20
2019-05-26T08:04:56.089Z,989.21
2019-05-26T08:05:56.073Z,989.18
2019-05-26T08:06:56.070Z,989.25
2019-05-26T08:08:11.556Z,989.12
2019-05-26T08:08:57.037Z,989.23
2019-05-26T08:09:56.147Z,989.14
2019-05-26T08:10:56.029Z,989.18
2019-05-26T08:11:56.019Z,989.16
2019-05-26T08:12:56.010Z,989.24
2019-05-26T08:14:55.976Z,989.20
2019-05-26T08:15:55.957Z,989.26
2019-05-26T08:16:55.953Z,989.24
2019-05-26T08:17:55.944Z,989.25
2019-05-26T08:19:06.593Z,989.24
2019-05-26T08:19:55.920Z,989.28
2019-05-26T08:20:55.921Z,989.24
2019-05-26T08:21:55.913Z,989.26
2019-05-26T08:22:55.887Z,989.27
2019-05-26T08:23:55.894Z,989.25
2019-05-26T08:24:55.888Z,989.26
2019-05-26T08:25:55.987Z,989.24
2019-05-26T08:26:55.839Z,989.18
2019-05-26T08:28:55.859Z,989.24
2019-05-26T08:29:55.843Z,989.22
2019-05-26T08:30:55.848Z,989.19
2019-05-26T08:31:55.824Z,989.22
2019-05-26T08:32:55.791Z,989.23
2019-05-26T08:33:55.785Z,989.21
2019-05-26T08:34:55.793Z,989.26
2019-05-26T08:35:55.771Z,989.31
2019-05-26T08:36:55.758Z,989.27
2019-05-26T08:37:55.751Z,989.27
2019-05-26T08:38:55.717Z,989.35
2019-05-26T08:39:55.707Z,989.29
2019-05-26T08:40:55.709Z,989.32
2019-05-26T08:41:55.706Z,989.33
2019-05-26T08:42:55.702Z,989.27
2019-05-26T08:43:55.667Z,989.19
2019-05-26T08:45:55.667Z,989.27
2019-05-26T08:46:55.648Z,989.28
2019-05-26T08:47:55.647Z,989.30
2019-05-26T08:48:55.607Z,989.22
2019-05-26T08:50:05.738Z,989.22
2019-05-26T08:50:55.607Z,989.22
2019-05-26T08:51:55.584Z,989.24
2019-05-26T08:52:55.566Z,989.19
2019-05-26T08:53:55.578Z,989.21
2019-05-26T08:54:55.558Z,989.19
2019-05-26T08:55:55.529Z,989.20
2019-05-26T08:56:55.544Z,989.16
2019-05-26T08:57:55.519Z,989.26
2019-05-26T08:58:55.520Z,989.16
2019-05-26T09:00:55.486Z,989.13
2019-05-26T09:01:55.466Z,989.17
2019-05-26T09:02:55.475Z,989.23
2019-05-26T09:03:55.488Z,989.14
2019-05-26T09:04:55.444Z,989.19
2019-05-26T09:05:55.430Z,989.16
2019-05-26T09:06:55.432Z,989.18
2019-05-26T09:07:55.405Z,989.18
2019-05-26T09:08:55.399Z,989.17
2019-05-26T09:09:55.395Z,989.12
2019-05-26T09:10:55.375Z,989.08
2019-05-26T09:11:55.423Z,989.08
2019-05-26T09:13:01.075Z,989.15
2019-05-26T09:13:56.350Z,989.19
2019-05-26T09:14:55.356Z,989.15
2019-05-26T09:16:55.303Z,989.14
2019-05-26T09:17:55.307Z,989.08
2019-05-26T09:18:55.326Z,989.10
2019-05-26T09:19:55.317Z,989.14
2019-05-26T09:21:07.477Z,989.16
2019-05-26T09:21:55.264Z,989.18
2019-05-26T09:22:55.247Z,989.16
2019-05-26T09:23:55.233Z,989.12
2019-05-26T09:24:55.227Z,989.10
2019-05-26T09:25:55.215Z,989.15
2019-05-26T09:26:55.233Z,989.11
2019-05-26T09:27:55.204Z,989.14
2019-05-26T09:28:55.186Z,989.21
2019-05-26T09:29:55.172Z,989.20
2019-05-26T09:30:55.181Z,989.23
2019-05-26T09:32:55.207Z,989.21
2019-05-26T09:33:55.145Z,989.14
2019-05-26T09:34:55.142Z,989.12
2019-05-26T09:35:55.155Z,989.09
2019-05-26T09:36:57.093Z,989.06
2019-05-26T09:37:55.095Z,989.10
2019-05-26T09:38:55.083Z,989.10
2019-05-26T09:39:55.059Z,989.09
2019-05-26T09:40:55.061Z,989.11
2019-05-26T09:41:55.064Z,989.06
2019-05-26T09:42:55.045Z,989.04
2019-05-26T09:43:55.025Z,989.02
2019-05-26T09:44:55.013Z,989.04
2019-05-26T09:45:55.030Z,989.04
2019-05-26T09:47:54.997Z,989.03
2019-05-26T09:48:54.976Z,989.01
2019-05-26T09:49:54.971Z,988.97
2019-05-26T09:50:54.966Z,988.97
2019-05-26T09:52:05.074Z,988.93
2019-05-26T09:52:54.988Z,989.02
2019-05-26T09:54:01.602Z,989.03
2019-05-26T09:54:55.916Z,989.00
2019-05-26T09:55:54.895Z,988.94
2019-05-26T09:56:54.910Z,988.97
2019-05-26T09:57:55.783Z,988.97
2019-05-26T09:58:54.885Z,989.02
2019-05-26T09:59:54.855Z,988.99
2019-05-26T10:00:54.855Z,989.00
2019-05-26T10:01:54.845Z,988.94
2019-05-26T10:02:54.835Z,988.91
2019-05-26T10:04:54.806Z,988.92
2019-05-26T10:05:54.804Z,988.93
2019-05-26T10:06:54.783Z,988.97
2019-05-26T10:07:54.782Z,989.00
2019-05-26T10:08:54.793Z,988.95
2019-05-26T10:09:54.761Z,988.87
2019-05-26T10:10:54.732Z,988.90
2019-05-26T10:11:54.763Z,988.88
2019-05-26T10:12:54.738Z,988.91
2019-05-26T10:13:54.700Z,988.89
2019-05-26T10:14:54.703Z,988.91
2019-05-26T10:15:54.705Z,988.88
2019-05-26T10:16:54.679Z,988.92
2019-05-26T10:18:54.675Z,988.92
2019-05-26T10:19:54.663Z,988.93
2019-05-26T10:20:54.750Z,988.86
2019-05-26T10:21:54.625Z,988.91
2019-05-26T10:23:06.444Z,988.90
2019-05-26T10:23:54.654Z,988.94
2019-05-26T10:24:54.581Z,988.91
2019-05-26T10:25:54.581Z,988.89
2019-05-26T10:26:54.569Z,988.90
2019-05-26T10:27:54.564Z,988.87
2019-05-26T10:28:54.545Z,988.92
2019-05-26T10:29:54.525Z,988.84
2019-05-26T10:30:54.564Z,988.87
2019-05-26T10:31:54.522Z,988.80
2019-05-26T10:32:54.510Z,988.84
2019-05-26T10:33:54.531Z,988.85
2019-05-26T10:34:54.485Z,988.80
2019-05-26T10:36:54.474Z,988.84
2019-05-26T10:37:54.484Z,988.87
2019-05-26T10:38:54.453Z,988.79
2019-05-26T10:39:54.432Z,988.83
2019-05-26T10:40:54.411Z,988.88
2019-05-26T10:41:54.410Z,988.85
2019-05-26T10:42:54.412Z,988.84
2019-05-26T10:43:54.392Z,988.84
2019-05-26T10:44:54.381Z,988.88
2019-05-26T10:45:54.350Z,988.87
2019-05-26T10:46:54.362Z,988.92
2019-05-26T10:47:54.349Z,988.82
2019-05-26T10:49:54.321Z,988.83
2019-05-26T10:50:54.320Z,988.85
2019-05-26T10:51:54.322Z,988.82
2019-05-26T10:52:54.299Z,988.87
2019-05-26T10:54:04.596Z,988.84
2019-05-26T10:54:54.260Z,988.81
2019-05-26T10:55:54.261Z,988.84
2019-05-26T10:56:54.241Z,988.84
2019-05-26T10:57:54.240Z,988.80
2019-05-26T10:58:54.224Z,988.82
2019-05-26T10:59:54.219Z,988.81
2019-05-26T11:00:54.202Z,988.80
2019-05-26T11:01:54.199Z,988.78
2019-05-26T11:02:54.198Z,988.75
2019-05-26T11:03:54.209Z,988.68
2019-05-26T11:04:54.151Z,988.70
2019-05-26T11:05:54.152Z,988.67
2019-05-26T11:06:54.151Z,988.63
2019-05-26T11:08:54.123Z,988.63
2019-05-26T11:09:54.112Z,988.63
2019-05-26T11:10:54.111Z,988.60
2019-05-26T11:11:54.090Z,988.58
2019-05-26T11:12:54.081Z,988.53
2019-05-26T11:14:02.219Z,988.59
2019-05-26T11:14:55.056Z,988.62
2019-05-26T11:15:54.049Z,988.60
2019-05-26T11:16:54.032Z,988.66
2019-05-26T11:17:54.030Z,988.63
2019-05-26T11:18:54.010Z,988.63
2019-05-26T11:20:53.987Z,988.59
2019-05-26T11:21:53.999Z,988.62
2019-05-26T11:22:53.980Z,988.60
2019-05-26T11:23:53.949Z,988.58
2019-05-26T11:25:04.258Z,988.54
2019-05-26T11:25:53.929Z,988.54
2019-05-26T11:26:53.967Z,988.59
2019-05-26T11:27:53.933Z,988.52
2019-05-26T11:28:53.897Z,988.53
2019-05-26T11:29:53.889Z,988.54
2019-05-26T11:30:53.889Z,988.57
2019-05-26T11:31:53.869Z,988.49
2019-05-26T11:32:53.883Z,988.54
2019-05-26T11:33:53.862Z,988.55
2019-05-26T11:35:01.487Z,988.51
2019-05-26T11:35:54.863Z,988.55
2019-05-26T11:36:53.831Z,988.53
2019-05-26T11:37:53.821Z,988.60
2019-05-26T11:38:53.801Z,988.58
2019-05-26T11:39:53.789Z,988.62
2019-05-26T11:40:53.819Z,988.58
2019-05-26T11:41:55.195Z,988.58
2019-05-26T11:42:53.738Z,988.61
2019-05-26T11:43:53.749Z,988.66
2019-05-26T11:44:53.728Z,988.62
2019-05-26T11:45:53.717Z,988.62
2019-05-26T11:46:53.827Z,988.57
2019-05-26T11:47:53.711Z,988.57
2019-05-26T11:48:53.707Z,988.60
2019-05-26T11:49:53.680Z,988.61
2019-05-26T11:50:53.667Z,988.56
2019-05-26T11:51:53.669Z,988.61
2019-05-26T11:52:53.688Z,988.55
2019-05-26T11:53:53.639Z,988.61
2019-05-26T11:54:53.630Z,988.62
2019-05-26T11:56:04.159Z,988.57
2019-05-26T11:56:53.598Z,988.61
2019-05-26T11:57:53.590Z,988.60
2019-05-26T11:58:53.585Z,988.55
2019-05-26T11:59:53.578Z,988.54
2019-05-26T12:00:53.559Z,988.51
2019-05-26T12:01:53.557Z,988.56
2019-05-26T12:02:53.539Z,988.57
2019-05-26T12:03:53.540Z,988.50
2019-05-26T12:04:53.540Z,988.55
2019-05-26T12:05:53.506Z,988.55
2019-05-26T12:06:53.500Z,988.54
2019-05-26T12:07:53.490Z,988.50
2019-05-26T12:08:53.547Z,988.48
2019-05-26T12:09:53.491Z,988.53
2019-05-26T12:10:53.457Z,988.50
2019-05-26T12:11:53.448Z,988.49
2019-05-26T12:12:53.437Z,988.47
2019-05-26T12:13:53.423Z,988.47
2019-05-26T12:14:53.466Z,988.52
2019-05-26T12:15:53.410Z,988.48
2019-05-26T12:16:53.404Z,988.51
2019-05-26T12:17:53.388Z,988.53
2019-05-26T12:18:53.367Z,988.50
2019-05-26T12:19:53.386Z,988.49
2019-05-26T12:20:53.345Z,988.52
2019-05-26T12:21:53.351Z,988.61
2019-05-26T12:22:53.339Z,988.60
2019-05-26T12:23:55.106Z,988.54
2019-05-26T12:24:53.330Z,988.54
2019-05-26T12:25:53.305Z,988.48
2019-05-26T12:27:03.415Z,988.51
2019-05-26T12:27:53.269Z,988.53
2019-05-26T12:28:53.257Z,988.53
2019-05-26T12:29:53.258Z,988.52
2019-05-26T12:30:53.240Z,988.50
2019-05-26T12:31:53.260Z,988.55
2019-05-26T12:32:53.241Z,988.57
2019-05-26T12:33:53.219Z,988.52
2019-05-26T12:34:53.224Z,988.51
2019-05-26T12:35:53.199Z,988.53
2019-05-26T12:36:53.221Z,988.55
2019-05-26T12:37:53.172Z,988.57
2019-05-26T12:38:53.157Z,988.59
2019-05-26T12:39:53.155Z,988.52
2019-05-26T12:40:53.134Z,988.49
2019-05-26T12:41:53.153Z,988.54
2019-05-26T12:42:53.153Z,988.50
2019-05-26T12:44:53.103Z,988.55
2019-05-26T12:45:53.090Z,988.58
2019-05-26T12:46:53.100Z,988.55
2019-05-26T12:47:53.070Z,988.60
2019-05-26T12:48:53.053Z,988.52
2019-05-26T12:49:53.049Z,988.56
2019-05-26T12:50:53.040Z,988.55
2019-05-26T12:51:53.049Z,988.47
2019-05-26T12:52:53.029Z,988.51
2019-05-26T12:53:53.007Z,988.58
2019-05-26T12:54:52.975Z,988.52
2019-05-26T12:55:52.974Z,988.58
2019-05-26T12:56:52.963Z,988.60
2019-05-26T12:58:03.835Z,988.55
2019-05-26T12:58:52.946Z,988.52
2019-05-26T12:59:52.928Z,988.51
2019-05-26T13:00:55.149Z,988.55
2019-05-26T13:01:52.907Z,988.54
2019-05-26T13:02:52.957Z,988.52